ADDS TAF Board (Experimental) INFO

IDs: Format: Expanded Condensed

Updated at: 1639 UTC 01 Feb 2015

KLAX - Los Angeles Intl, CA, US

Issued at 1450 UTC 01 Feb 2015
Time1553Z01/17Z01/18Z01/19Z01/20Z01/21Z01/22Z01/23Z02/00Z02/01Z02/02Z02/03Z02/04Z02/05Z
TypeOBSPRVLPRVLPRVLPRVLPRVLPRVLPRVLPRVLPRVLPRVLPRVLPRVLPRVL
VIS10>6>6>6>6>6>6>6>6>6>6>6>6>6
CIG----------------------------
CoverFEWSKCSKCSCTSCTSCTSCTSCTSCTSCTSCTSCTSCTSCT
FltCat--VFRVFRVFRVFRVFRVFRVFRVFRVFRVFRVFRVFRVFR
WX----------------------------
WDir110VRBVRB260260260260260260260260260VRBVRB
WSpd43399999999933
WGst----------------------------
R06/24
XWnd-2VRBVRB-0-0-0-0-0-0-0-0-0VRBVRB
HWnd4VRBVRB-9-9-9-9-9-9-9-9-9VRBVRB
R07/25
XWnd-2VRBVRB-0-0-0-0-0-0-0-0-0VRBVRB
HWnd4VRBVRB-9-9-9-9-9-9-9-9-9VRBVRB
Raw TAF
KLAX 011450Z 0115/0218 VRB03KT P6SM SKC
  FM011900 26009KT P6SM SCT200
  FM020400 VRB03KT P6SM SCT200
  FM021000 VRB03KT 4SM BR SCT200
  FM021700 VRB03KT P6SM SCT200


Raw METAR
KLAX 011553Z 11004KT 10SM FEW280 12/08 A3009 RMK AO2 SLP188 T01220083

TAF Board Legend

Hazard VFR MVFR IFR LIFR
Visibility (sm) >5 3≤X≤5 1≤X<3 <1
Ceiling (100 ft) >30 10≤X≤30 5≤X<10 <5
Wind Speed (kt) <10 10≤X<20 20≤X<30 ≥30
Wind Gust (kt) <15 15≤X<25 25≤X<35 ≥35
Weather No Wx Reported VCTS,-TS,-FZRA TS,FZRA +TS,+FZRA


Page loaded:  16:39 UTC  |   08:39 AM Pacific  |   09:39 AM Mountain  |   10:39 AM Central  |   11:39 AM Eastern

 

ADVISORIES

FORECASTS

FORECASTS

OBSERVATIONS

USER TOOLS

ABOUT US